createdAt,value
2018-12-27T00:00:07.366Z,17.83
2018-12-27T00:02:36.725Z,16.70
2018-12-27T00:05:06.126Z,16.63
2018-12-27T00:07:36.127Z,17.17
2018-12-27T00:10:07.050Z,17.53
2018-12-27T00:12:36.317Z,17.23
2018-12-27T00:15:06.339Z,17.10
2018-12-27T00:17:35.977Z,16.37
2018-12-27T00:20:05.484Z,16.90
2018-12-27T00:22:35.195Z,15.50
2018-12-27T00:25:04.939Z,17.03
2018-12-27T00:27:34.233Z,16.27
2018-12-27T00:30:04.423Z,16.10
2018-12-27T00:32:33.921Z,16.07
2018-12-27T00:35:03.290Z,16.00
2018-12-27T00:37:33.498Z,15.73
2018-12-27T00:40:02.945Z,15.93
2018-12-27T00:42:32.397Z,15.77
2018-12-27T00:45:02.612Z,16.37
2018-12-27T00:47:32.468Z,16.07
2018-12-27T00:50:01.995Z,16.90
2018-12-27T00:52:31.927Z,16.70
2018-12-27T00:55:01.726Z,16.47
2018-12-27T00:57:31.159Z,15.60
2018-12-27T01:00:00.743Z,15.97
2018-12-27T01:02:30.575Z,16.53
2018-12-27T01:05:00.454Z,15.83
2018-12-27T01:07:30.694Z,16.00
2018-12-27T01:10:00.162Z,16.43
2018-12-27T01:12:30.339Z,16.47
2018-12-27T01:14:59.746Z,16.97
2018-12-27T01:17:29.272Z,16.70
2018-12-27T01:19:58.732Z,16.63
2018-12-27T01:22:28.588Z,17.10
2018-12-27T01:24:58.033Z,16.43
2018-12-27T01:27:27.475Z,17.23
2018-12-27T01:29:56.971Z,16.70
2018-12-27T01:32:26.499Z,17.00
2018-12-27T01:34:56.365Z,16.93
2018-12-27T01:37:25.925Z,17.00
2018-12-27T01:39:55.485Z,16.80
2018-12-27T01:42:25.266Z,16.30
2018-12-27T01:44:54.817Z,17.53
2018-12-27T01:47:24.306Z,16.37
2018-12-27T01:49:53.758Z,17.33
2018-12-27T01:52:23.252Z,16.00
2018-12-27T01:54:52.799Z,17.00
2018-12-27T01:57:22.484Z,16.43
2018-12-27T01:59:51.964Z,17.90
2018-12-27T02:02:21.572Z,18.13
2018-12-27T02:04:51.014Z,16.43
2018-12-27T02:07:20.914Z,17.17
2018-12-27T02:09:50.428Z,16.47
2018-12-27T02:12:20.244Z,16.57
2018-12-27T02:14:49.791Z,16.13
2018-12-27T02:17:19.351Z,15.60
2018-12-27T02:19:49.587Z,16.73
2018-12-27T02:22:19.391Z,16.33
2018-12-27T02:24:48.938Z,15.37
2018-12-27T02:27:18.480Z,16.27
2018-12-27T02:29:48.054Z,17.07
2018-12-27T02:32:17.438Z,17.30
2018-12-27T02:34:46.923Z,16.90
2018-12-27T02:37:16.495Z,17.23
2018-12-27T02:39:46.036Z,17.60
2018-12-27T02:42:15.558Z,16.90
2018-12-27T02:44:45.160Z,17.17
2018-12-27T02:47:15.053Z,16.57
2018-12-27T02:49:44.936Z,17.20
2018-12-27T02:52:14.786Z,17.03
2018-12-27T02:54:44.521Z,17.80
2018-12-27T02:57:14.039Z,16.63
2018-12-27T02:59:43.536Z,16.47
2018-12-27T03:02:13.396Z,16.63
2018-12-27T03:04:43.134Z,16.53
2018-12-27T03:07:12.974Z,16.97
2018-12-27T03:09:42.836Z,16.47
2018-12-27T03:12:12.368Z,17.23
2018-12-27T03:14:41.845Z,16.20
2018-12-27T03:17:12.686Z,15.43
2018-12-27T03:19:42.174Z,16.57
2018-12-27T03:22:12.029Z,15.57
2018-12-27T03:24:41.552Z,16.20
2018-12-27T03:27:11.128Z,15.33
2018-12-27T03:29:40.658Z,14.73
2018-12-27T03:32:10.543Z,14.57
2018-12-27T03:34:40.007Z,14.60
2018-12-27T03:37:09.526Z,15.40
2018-12-27T03:39:39.044Z,14.63
2018-12-27T03:42:08.516Z,14.57
2018-12-27T03:44:38.030Z,14.13
2018-12-27T03:47:07.471Z,13.47
2018-12-27T03:49:37.351Z,14.10
2018-12-27T03:52:06.791Z,13.93
2018-12-27T03:54:36.954Z,14.43
2018-12-27T03:57:06.695Z,13.97
2018-12-27T03:59:36.227Z,13.90
2018-12-27T04:02:05.773Z,13.50
2018-12-27T04:04:35.255Z,13.60
2018-12-27T04:07:05.122Z,13.07
2018-12-27T04:09:34.683Z,13.70
2018-12-27T04:12:04.223Z,13.73
2018-12-27T04:14:34.115Z,13.60
2018-12-27T04:17:03.481Z,14.20
2018-12-27T04:19:32.874Z,15.30
2018-12-27T04:22:02.249Z,14.07
2018-12-27T04:24:31.634Z,14.03
2018-12-27T04:27:00.978Z,13.83
2018-12-27T04:29:30.263Z,14.57
2018-12-27T04:32:00.340Z,14.40
2018-12-27T04:34:31.129Z,12.80
2018-12-27T04:37:01.639Z,13.00
2018-12-27T04:39:30.990Z,13.70
2018-12-27T04:42:01.215Z,13.70
2018-12-27T04:44:30.564Z,13.50
2018-12-27T04:47:00.303Z,13.37
2018-12-27T04:49:29.625Z,13.80
2018-12-27T04:51:58.997Z,13.50
2018-12-27T04:54:28.351Z,14.13
2018-12-27T04:56:58.028Z,13.40
2018-12-27T04:59:27.405Z,13.77
2018-12-27T05:01:57.094Z,13.70
2018-12-27T05:04:26.757Z,14.27
2018-12-27T05:06:56.144Z,13.70
2018-12-27T05:09:25.497Z,14.17
2018-12-27T05:11:54.901Z,13.77
2018-12-27T05:14:24.203Z,13.33
2018-12-27T05:16:53.927Z,13.43
2018-12-27T05:19:23.636Z,13.67
2018-12-27T05:21:53.080Z,12.63
2018-12-27T05:24:22.743Z,13.07
2018-12-27T05:26:52.251Z,13.03
2018-12-27T05:29:21.975Z,13.53
2018-12-27T05:31:51.772Z,13.77
2018-12-27T05:34:26.099Z,13.40
2018-12-27T05:36:52.336Z,13.30
2018-12-27T05:39:21.716Z,13.90
2018-12-27T05:41:51.096Z,13.30
2018-12-27T05:44:20.466Z,14.30
2018-12-27T05:46:49.834Z,14.27
2018-12-27T05:49:19.588Z,13.97
2018-12-27T05:51:49.320Z,13.63
2018-12-27T05:54:18.630Z,13.67
2018-12-27T05:56:48.029Z,13.70
2018-12-27T05:59:17.386Z,14.17
2018-12-27T06:01:46.676Z,13.03
2018-12-27T06:04:16.431Z,13.13
2018-12-27T06:06:45.726Z,13.37
2018-12-27T06:09:15.099Z,12.77
2018-12-27T06:11:44.531Z,13.40
2018-12-27T06:14:14.162Z,13.17
2018-12-27T06:16:43.450Z,13.40
2018-12-27T06:19:13.130Z,13.43
2018-12-27T06:21:42.482Z,12.50
2018-12-27T06:24:11.796Z,13.07
2018-12-27T06:26:41.127Z,13.67
2018-12-27T06:29:10.502Z,12.97
2018-12-27T06:31:39.802Z,13.63
2018-12-27T06:34:09.178Z,12.87
2018-12-27T06:36:38.554Z,13.20
2018-12-27T06:39:08.392Z,13.20
2018-12-27T06:41:37.902Z,12.27
2018-12-27T06:44:07.264Z,12.77
2018-12-27T06:46:36.663Z,11.77
2018-12-27T06:49:06.346Z,12.33
2018-12-27T06:51:35.710Z,12.17
2018-12-27T06:54:05.088Z,11.80
2018-12-27T06:56:34.494Z,11.30
2018-12-27T06:59:04.354Z,11.40
2018-12-27T07:01:34.070Z,11.03
2018-12-27T07:04:03.460Z,9.93
2018-12-27T07:06:33.002Z,10.97
2018-12-27T07:09:02.346Z,11.40
2018-12-27T07:11:31.756Z,11.30
2018-12-27T07:14:01.129Z,12.23
2018-12-27T07:16:30.588Z,11.77
2018-12-27T07:19:00.336Z,11.87
2018-12-27T07:21:30.155Z,13.13
2018-12-27T07:23:59.559Z,11.83
2018-12-27T07:26:28.983Z,11.97
2018-12-27T07:28:58.364Z,11.20
2018-12-27T07:31:28.198Z,11.17
2018-12-27T07:33:57.524Z,10.43
2018-12-27T07:36:26.902Z,10.87
2018-12-27T07:38:56.467Z,11.60
2018-12-27T07:41:25.959Z,11.13
2018-12-27T07:43:55.760Z,10.17
2018-12-27T07:46:25.195Z,11.20
2018-12-27T07:48:54.605Z,11.13
2018-12-27T07:51:23.964Z,10.57
2018-12-27T07:53:53.274Z,10.40
2018-12-27T07:56:22.688Z,10.10
2018-12-27T07:58:52.069Z,10.67
2018-12-27T08:01:21.443Z,10.67
2018-12-27T08:03:50.841Z,10.73
2018-12-27T08:06:20.203Z,9.53
2018-12-27T08:08:49.517Z,8.53
2018-12-27T08:11:19.221Z,8.60
2018-12-27T08:13:48.969Z,9.13
2018-12-27T08:16:18.295Z,8.80
2018-12-27T08:18:47.979Z,9.20
2018-12-27T08:21:17.347Z,9.90
2018-12-27T08:23:46.641Z,10.77
2018-12-27T08:26:16.363Z,11.33
2018-12-27T08:28:45.825Z,10.30
2018-12-27T08:31:15.843Z,11.00
2018-12-27T08:33:45.237Z,10.77
2018-12-27T08:36:15.043Z,9.73
2018-12-27T08:39:04.327Z,9.87
2018-12-27T08:41:34.205Z,9.33
2018-12-27T08:44:04.091Z,9.50
2018-12-27T08:46:33.499Z,9.50
2018-12-27T08:49:03.213Z,10.30
2018-12-27T08:51:32.892Z,10.03
2018-12-27T08:54:02.681Z,10.10
2018-12-27T08:56:32.047Z,11.23
2018-12-27T08:59:04.085Z,11.20
2018-12-27T09:01:33.711Z,10.60
2018-12-27T09:04:03.391Z,10.47
2018-12-27T09:06:33.131Z,11.50
2018-12-27T09:09:02.520Z,10.20
2018-12-27T09:11:31.756Z,10.80
2018-12-27T09:14:01.421Z,10.73
2018-12-27T09:16:31.179Z,9.63
2018-12-27T09:19:00.930Z,9.93
2018-12-27T09:21:30.451Z,10.27
2018-12-27T09:24:00.194Z,10.20
2018-12-27T09:26:29.875Z,10.07
2018-12-27T09:28:59.610Z,10.53
2018-12-27T09:31:28.954Z,11.20
2018-12-27T09:33:59.058Z,10.70
2018-12-27T09:36:28.345Z,10.03
2018-12-27T09:38:57.813Z,10.57
2018-12-27T09:41:27.872Z,10.90
2018-12-27T09:43:57.833Z,10.23
2018-12-27T09:46:27.499Z,10.40
2018-12-27T09:48:56.913Z,9.60
2018-12-27T09:51:26.273Z,9.93
2018-12-27T09:53:55.671Z,10.60
2018-12-27T09:56:25.291Z,10.27
2018-12-27T09:58:54.645Z,10.63
2018-12-27T10:01:24.513Z,10.83
2018-12-27T10:03:53.897Z,9.80
2018-12-27T10:06:23.303Z,9.87
2018-12-27T10:08:52.982Z,10.17
2018-12-27T10:11:22.619Z,10.00
2018-12-27T10:13:51.982Z,9.97
2018-12-27T10:16:21.394Z,9.57
2018-12-27T10:18:51.167Z,10.20
2018-12-27T10:21:20.553Z,10.77
2018-12-27T10:23:50.002Z,11.03
2018-12-27T10:26:19.317Z,11.73
2018-12-27T10:28:49.561Z,11.10
2018-12-27T10:31:19.306Z,11.53
2018-12-27T10:33:48.779Z,11.57
2018-12-27T10:36:18.167Z,11.50
2018-12-27T10:38:48.641Z,11.40
2018-12-27T10:41:17.999Z,10.20
2018-12-27T10:43:47.903Z,10.57
2018-12-27T10:46:17.377Z,10.77
2018-12-27T10:48:47.097Z,10.53
2018-12-27T10:51:16.855Z,10.17
2018-12-27T10:53:46.597Z,9.70
2018-12-27T10:56:16.515Z,10.30
2018-12-27T10:58:45.837Z,10.93
2018-12-27T11:01:15.143Z,10.33
2018-12-27T11:03:44.455Z,9.87
2018-12-27T11:06:14.023Z,8.90
2018-12-27T11:08:43.425Z,9.30
2018-12-27T11:11:12.993Z,9.80
2018-12-27T11:13:42.360Z,8.93
2018-12-27T11:16:12.191Z,9.87
2018-12-27T11:18:41.554Z,9.33
2018-12-27T11:21:10.876Z,9.00
2018-12-27T11:23:40.287Z,8.80
2018-12-27T11:26:09.667Z,8.40
2018-12-27T11:28:39.693Z,7.47
2018-12-27T11:31:09.493Z,7.90
2018-12-27T11:33:38.943Z,9.37
2018-12-27T11:36:08.263Z,8.33
2018-12-27T11:38:37.640Z,8.23
2018-12-27T11:41:06.931Z,8.40
2018-12-27T11:43:36.313Z,9.20
2018-12-27T11:46:06.082Z,9.23
2018-12-27T11:48:35.819Z,8.90
2018-12-27T11:51:05.168Z,8.80
2018-12-27T11:53:34.496Z,8.50
2018-12-27T11:56:03.779Z,8.60
2018-12-27T11:58:33.189Z,8.67
2018-12-27T12:01:02.593Z,8.73
2018-12-27T12:03:32.276Z,8.67
2018-12-27T12:06:03.338Z,8.90
2018-12-27T12:08:32.611Z,8.10
2018-12-27T12:11:02.068Z,8.63
2018-12-27T12:13:31.452Z,7.60
2018-12-27T12:16:01.194Z,8.67
2018-12-27T12:18:30.592Z,8.53
2018-12-27T12:20:59.900Z,7.73
2018-12-27T12:23:29.321Z,7.87
2018-12-27T12:25:58.738Z,7.47
2018-12-27T12:28:28.058Z,8.97
2018-12-27T12:30:57.570Z,9.03
2018-12-27T12:33:26.944Z,8.63
2018-12-27T12:35:56.222Z,7.60
2018-12-27T12:38:25.846Z,7.80
2018-12-27T12:40:55.221Z,6.70
2018-12-27T12:43:24.694Z,7.67
2018-12-27T12:45:54.018Z,7.93
2018-12-27T12:48:23.671Z,7.40
2018-12-27T12:50:53.158Z,7.60
2018-12-27T12:53:22.553Z,7.43
2018-12-27T12:55:52.578Z,7.70
2018-12-27T12:58:21.844Z,7.13
2018-12-27T13:00:51.258Z,7.30
2018-12-27T13:03:20.886Z,7.20
2018-12-27T13:05:50.236Z,6.70
2018-12-27T13:08:19.628Z,7.10
2018-12-27T13:10:49.286Z,7.30
2018-12-27T13:13:18.773Z,7.60
2018-12-27T13:15:48.078Z,7.60
2018-12-27T13:18:17.915Z,7.40
2018-12-27T13:20:47.294Z,7.20
2018-12-27T13:23:17.270Z,8.00
2018-12-27T13:26:01.559Z,7.23
2018-12-27T13:28:30.941Z,7.60
2018-12-27T13:31:00.678Z,6.87
2018-12-27T13:33:29.939Z,7.47
2018-12-27T13:35:59.677Z,7.97
2018-12-27T13:38:28.954Z,7.80
2018-12-27T13:40:58.634Z,8.30
2018-12-27T13:43:27.973Z,8.27
2018-12-27T13:45:57.396Z,8.17
2018-12-27T13:48:27.262Z,8.67
2018-12-27T13:50:56.719Z,7.83
2018-12-27T13:53:26.103Z,8.30
2018-12-27T13:55:55.367Z,8.37
2018-12-27T13:58:24.765Z,9.27
2018-12-27T14:00:54.130Z,8.90
2018-12-27T14:03:24.297Z,21.73
2018-12-27T14:05:53.678Z,12.67
2018-12-27T14:08:23.018Z,25.63
2018-12-27T14:10:52.305Z,11.00
2018-12-27T14:13:22.363Z,11.13
2018-12-27T14:15:52.000Z,11.07
2018-12-27T14:18:21.382Z,9.23
2018-12-27T14:20:50.758Z,11.90
2018-12-27T14:23:20.041Z,12.47
2018-12-27T14:25:49.371Z,12.50
2018-12-27T14:28:48.388Z,11.80
2018-12-27T14:31:23.984Z,12.83
2018-12-27T14:33:53.579Z,12.93
2018-12-27T14:36:26.501Z,13.80
2018-12-27T14:38:56.278Z,16.37
2018-12-27T14:41:25.695Z,27.57
2018-12-27T14:43:55.087Z,25.93
2018-12-27T14:46:24.795Z,20.00
2018-12-27T14:48:54.351Z,17.33
2018-12-27T14:51:24.371Z,17.73
2018-12-27T14:53:53.735Z,18.00
2018-12-27T14:56:23.079Z,18.40
2018-12-27T14:58:52.555Z,17.53
2018-12-27T15:01:22.319Z,18.73
2018-12-27T15:03:52.144Z,16.77
2018-12-27T15:06:21.861Z,15.93
2018-12-27T15:08:51.226Z,18.60
2018-12-27T15:11:20.536Z,19.67
2018-12-27T15:13:49.895Z,19.43
2018-12-27T15:16:19.624Z,18.43
2018-12-27T15:18:49.411Z,17.03
2018-12-27T15:21:19.124Z,17.93
2018-12-27T15:23:48.506Z,14.87
2018-12-27T15:26:18.582Z,15.63
2018-12-27T15:28:47.976Z,16.33
2018-12-27T15:31:17.359Z,15.73
2018-12-27T15:33:47.117Z,15.13
2018-12-27T15:36:16.443Z,13.67
2018-12-27T15:38:45.813Z,13.13
2018-12-27T15:41:15.195Z,12.40
2018-12-27T15:43:44.994Z,12.87
2018-12-27T15:46:14.361Z,13.80
2018-12-27T15:48:43.739Z,15.73
2018-12-27T15:51:13.321Z,15.90
2018-12-27T15:53:42.635Z,16.40
2018-12-27T15:56:12.040Z,15.33
2018-12-27T15:58:41.689Z,13.97
2018-12-27T16:01:11.170Z,16.87
2018-12-27T16:03:40.575Z,15.53
2018-12-27T16:06:10.432Z,14.93
2018-12-27T16:08:40.432Z,14.77
2018-12-27T16:11:09.862Z,15.03
2018-12-27T16:13:39.558Z,15.60
2018-12-27T16:16:08.862Z,14.43
2018-12-27T16:18:38.308Z,14.47
2018-12-27T16:21:07.935Z,13.97
2018-12-27T16:23:37.741Z,14.10
2018-12-27T16:26:07.760Z,13.23
2018-12-27T16:28:37.406Z,12.60
2018-12-27T16:31:07.112Z,12.20
2018-12-27T16:33:36.532Z,13.27
2018-12-27T16:36:05.836Z,13.57
2018-12-27T16:38:35.308Z,13.10
2018-12-27T16:41:04.728Z,13.70
2018-12-27T16:43:34.759Z,13.63
2018-12-27T16:46:04.267Z,17.10
2018-12-27T16:48:33.655Z,17.07
2018-12-27T16:51:03.046Z,14.00
2018-12-27T16:53:32.503Z,12.20
2018-12-27T16:56:01.888Z,10.90
2018-12-27T16:58:31.278Z,11.77
2018-12-27T17:01:00.967Z,12.77
2018-12-27T17:03:32.288Z,14.40
2018-12-27T17:06:01.726Z,14.53
2018-12-27T17:08:31.100Z,15.27
2018-12-27T17:11:00.443Z,15.33
2018-12-27T17:13:29.830Z,16.43
2018-12-27T17:15:59.151Z,15.27
2018-12-27T17:18:28.630Z,15.33
2018-12-27T17:20:58.046Z,15.70
2018-12-27T17:23:27.810Z,22.37
2018-12-27T17:25:57.314Z,19.20
2018-12-27T17:28:26.910Z,16.77
2018-12-27T17:30:56.302Z,15.30
2018-12-27T17:33:25.748Z,16.17
2018-12-27T17:35:55.193Z,15.40
2018-12-27T17:38:25.412Z,14.43
2018-12-27T17:40:54.770Z,14.87
2018-12-27T17:43:24.181Z,13.87
2018-12-27T17:45:53.621Z,14.13
2018-12-27T17:48:23.073Z,13.30
2018-12-27T17:50:52.456Z,13.60
2018-12-27T17:53:21.897Z,37.77
2018-12-27T17:55:51.288Z,15.17
2018-12-27T17:58:21.098Z,14.13
2018-12-27T18:00:50.494Z,13.87
2018-12-27T18:03:19.897Z,14.40
2018-12-27T18:05:49.680Z,14.13
2018-12-27T18:08:19.349Z,13.97
2018-12-27T18:10:48.655Z,18.93
2018-12-27T18:13:18.408Z,23.93
2018-12-27T18:15:47.772Z,16.13
2018-12-27T18:18:17.190Z,15.97
2018-12-27T18:20:46.612Z,15.00
2018-12-27T18:23:16.003Z,13.73
2018-12-27T18:25:45.337Z,13.17
2018-12-27T18:28:14.637Z,13.27
2018-12-27T18:30:44.041Z,14.03
2018-12-27T18:33:13.452Z,14.30
2018-12-27T18:35:42.854Z,13.93
2018-12-27T18:38:12.671Z,13.83
2018-12-27T18:40:42.073Z,14.77
2018-12-27T18:43:11.472Z,14.80
2018-12-27T18:45:40.778Z,14.83
2018-12-27T18:48:10.196Z,15.80
2018-12-27T18:50:39.952Z,15.17
2018-12-27T18:53:09.646Z,14.33
2018-12-27T18:55:39.088Z,16.00
2018-12-27T18:58:08.471Z,16.50
2018-12-27T19:00:38.036Z,17.03
2018-12-27T19:03:07.467Z,14.00
2018-12-27T19:05:36.837Z,14.03
2018-12-27T19:08:06.203Z,15.90
2018-12-27T19:10:35.605Z,17.20
2018-12-27T19:13:09.772Z,18.60
2018-12-27T19:16:00.143Z,16.10
2018-12-27T19:18:32.651Z,16.70
2018-12-27T19:21:22.523Z,15.83
2018-12-27T19:23:51.918Z,16.13
2018-12-27T19:26:21.275Z,16.83
2018-12-27T19:28:51.041Z,17.67
2018-12-27T19:31:20.465Z,17.20
2018-12-27T19:33:50.171Z,17.53
2018-12-27T19:36:19.839Z,17.23
2018-12-27T19:38:49.429Z,18.10
2018-12-27T19:41:18.814Z,17.80
2018-12-27T19:43:48.309Z,18.00
2018-12-27T19:46:17.687Z,22.37
2018-12-27T19:48:47.057Z,19.93
2018-12-27T19:51:16.371Z,18.17
2018-12-27T19:53:45.750Z,16.73
2018-12-27T19:56:15.086Z,15.73
2018-12-27T19:58:44.585Z,17.60
2018-12-27T20:01:13.785Z,16.97
2018-12-27T20:03:43.118Z,18.53
2018-12-27T20:06:12.532Z,17.00
2018-12-27T20:08:42.302Z,16.77
2018-12-27T20:11:11.608Z,16.37
2018-12-27T20:13:41.591Z,15.60
2018-12-27T20:16:11.226Z,15.47
2018-12-27T20:18:40.616Z,15.13
2018-12-27T20:21:10.335Z,14.70
2018-12-27T20:23:39.736Z,14.80
2018-12-27T20:26:09.271Z,14.90
2018-12-27T20:28:38.731Z,16.30
2018-12-27T20:31:08.075Z,15.43
2018-12-27T20:33:37.482Z,15.00
2018-12-27T20:36:07.462Z,14.90
2018-12-27T20:38:37.176Z,15.63
2018-12-27T20:41:06.484Z,14.00
2018-12-27T20:43:35.910Z,15.20
2018-12-27T20:46:05.883Z,15.10
2018-12-27T20:48:35.191Z,16.57
2018-12-27T20:51:04.898Z,15.93
2018-12-27T20:53:34.213Z,15.37
2018-12-27T20:56:03.592Z,15.87
2018-12-27T20:58:32.843Z,15.00
2018-12-27T21:01:02.209Z,14.33
2018-12-27T21:03:31.526Z,14.57
2018-12-27T21:06:01.290Z,14.80
2018-12-27T21:08:30.741Z,14.43
2018-12-27T21:11:00.029Z,14.33
2018-12-27T21:13:29.480Z,14.97
2018-12-27T21:15:58.867Z,17.20
2018-12-27T21:18:28.532Z,16.50
2018-12-27T21:20:58.252Z,18.17
2018-12-27T21:23:27.937Z,15.77
2018-12-27T21:25:57.267Z,16.90
2018-12-27T21:28:26.714Z,16.37
2018-12-27T21:30:56.074Z,16.63
2018-12-27T21:33:26.290Z,16.93
2018-12-27T21:35:55.933Z,16.33
2018-12-27T21:38:25.442Z,16.60
2018-12-27T21:40:55.939Z,15.53
2018-12-27T21:43:25.781Z,16.43
2018-12-27T21:45:55.555Z,15.10
2018-12-27T21:48:24.969Z,15.90
2018-12-27T21:50:54.433Z,14.63
2018-12-27T21:53:24.515Z,16.23
2018-12-27T21:55:54.050Z,15.23
2018-12-27T21:58:23.441Z,15.93
2018-12-27T22:00:52.919Z,15.40
2018-12-27T22:03:22.251Z,16.53
2018-12-27T22:05:51.821Z,15.77
2018-12-27T22:08:21.105Z,16.07
2018-12-27T22:10:50.774Z,15.13
2018-12-27T22:13:20.203Z,15.37
2018-12-27T22:15:49.889Z,15.87
2018-12-27T22:18:19.643Z,16.77
2018-12-27T22:21:08.524Z,16.53
2018-12-27T22:23:37.953Z,16.93
2018-12-27T22:26:07.311Z,16.70
2018-12-27T22:28:36.954Z,18.50
2018-12-27T22:31:06.373Z,18.17
2018-12-27T22:33:35.740Z,17.80
2018-12-27T22:36:05.078Z,16.80
2018-12-27T22:38:35.816Z,17.40
2018-12-27T22:41:05.605Z,17.03
2018-12-27T22:43:34.980Z,17.30
2018-12-27T22:46:04.364Z,16.90
2018-12-27T22:48:33.638Z,16.30
2018-12-27T22:51:03.308Z,17.23
2018-12-27T22:53:32.706Z,17.30
2018-12-27T22:56:02.066Z,18.17
2018-12-27T22:58:31.411Z,17.77
2018-12-27T23:01:00.693Z,17.03
2018-12-27T23:03:30.474Z,18.10
2018-12-27T23:05:59.893Z,17.70
2018-12-27T23:08:29.492Z,17.17
2018-12-27T23:10:59.619Z,18.17
2018-12-27T23:13:29.014Z,16.93
2018-12-27T23:15:58.323Z,16.60
2018-12-27T23:18:28.002Z,17.53
2018-12-27T23:20:57.707Z,16.93
2018-12-27T23:23:27.400Z,16.53
2018-12-27T23:25:57.687Z,16.90
2018-12-27T23:28:27.117Z,16.87
2018-12-27T23:30:56.732Z,16.03
2018-12-27T23:33:26.037Z,16.60
2018-12-27T23:35:55.513Z,17.63
2018-12-27T23:38:25.162Z,18.23
2018-12-27T23:40:54.534Z,17.37
2018-12-27T23:43:23.854Z,16.27
2018-12-27T23:45:53.332Z,17.13
2018-12-27T23:48:22.686Z,17.20
2018-12-27T23:50:52.064Z,18.00
2018-12-27T23:53:21.660Z,18.40
2018-12-27T23:55:51.400Z,18.10
2018-12-27T23:58:20.795Z,17.67
